Time;durP1;ratioP1;P1;durP2;ratioP2;P2;SDS_P1;SDS_P2;PMS_P1;PMS_P2;Temp;Humidity;BMP_temperature;BMP_pressure;BME280_temperature;BME280_humidity;BME280_pressure;Samples;Min_cycle;Max_cycle;Signal;HPM_P1;HPM_P2
2023/12/01 00:00:43;;;;;;;50.60;18.90;;;0.30;99.90;;;;;;4241506;27;20446;-80
2023/12/01 00:02:45;;;;;;;43.73;18.50;;;0.30;99.90;;;;;;4236972;27;20469;-79
2023/12/01 00:04:47;;;;;;;45.73;18.57;;;0.30;99.90;;;;;;4234944;27;20543;-79
2023/12/01 00:06:49;;;;;;;42.60;17.17;;;0.40;99.90;;;;;;4236676;27;20529;-79
2023/12/01 00:08:51;;;;;;;36.67;16.27;;;0.20;99.90;;;;;;4238139;27;20525;-80
2023/12/01 00:10:55;;;;;;;40.87;17.53;;;0.30;99.90;;;;;;4244260;28;20494;-80
2023/12/01 00:12:57;;;;;;;39.50;16.63;;;0.30;99.90;;;;;;4235579;28;20475;-80
2023/12/01 00:14:59;;;;;;;38.97;16.57;;;0.30;99.90;;;;;;4238348;28;20492;-79
2023/12/01 00:17:01;;;;;;;42.13;18.00;;;0.30;99.90;;;;;;4232626;28;20457;-79
2023/12/01 00:19:03;;;;;;;51.47;19.23;;;0.30;99.90;;;;;;4237137;28;20484;-79
2023/12/01 00:21:06;;;;;;;51.00;20.43;;;0.30;99.90;;;;;;4243698;28;20456;-79
2023/12/01 00:23:07;;;;;;;51.17;19.33;;;0.20;99.90;;;;;;4246312;28;20442;-83
2023/12/01 00:25:10;;;;;;;54.93;20.53;;;0.30;99.90;;;;;;4244121;27;20484;-81
2023/12/01 00:27:13;;;;;;;50.63;20.50;;;0.30;99.90;;;;;;4253098;28;20450;-82
2023/12/01 00:29:15;;;;;;;52.00;19.03;;;0.20;99.90;;;;;;4261183;27;20548;-80
2023/12/01 00:31:17;;;;;;;58.53;21.53;;;0.20;99.90;;;;;;4257050;28;20495;-80
2023/12/01 00:33:19;;;;;;;54.93;20.70;;;0.20;99.90;;;;;;4261923;27;20432;-80
2023/12/01 00:35:42;;;;;;;57.67;19.87;;;0.20;99.90;;;;;;4254050;28;20481;-80
2023/12/01 00:37:44;;;;;;;51.80;19.17;;;0.20;99.90;;;;;;4246072;28;20434;-81
2023/12/01 00:39:45;;;;;;;55.67;21.80;;;0.20;99.90;;;;;;4248389;27;20475;-81
2023/12/01 00:41:49;;;;;;;60.00;20.63;;;0.20;99.90;;;;;;4251945;27;20429;-81
2023/12/01 00:43:53;;;;;;;62.00;21.83;;;0.20;99.90;;;;;;4246778;27;20564;-80
2023/12/01 00:45:55;;;;;;;55.57;21.53;;;0.60;99.90;;;;;;4238617;28;20438;-80
2023/12/01 00:47:56;;;;;;;60.47;21.50;;;0.20;99.90;;;;;;4242954;28;20465;-79
2023/12/01 00:49:58;;;;;;;60.97;21.67;;;0.20;99.90;;;;;;4242941;28;20477;-81
2023/12/01 00:51:59;;;;;;;54.10;20.03;;;0.40;99.90;;;;;;4246977;28;20220;-81
2023/12/01 00:54:01;;;;;;;57.00;21.77;;;0.40;99.90;;;;;;4246676;28;21102;-79
2023/12/01 00:56:02;;;;;;;56.40;20.63;;;0.20;99.90;;;;;;4243571;28;20521;-80
2023/12/01 00:58:05;;;;;;;52.90;19.87;;;0.10;99.90;;;;;;4241112;28;20515;-80
2023/12/01 01:00:10;;;;;;;54.83;20.63;;;0.30;99.90;;;;;;4242365;28;20483;-81
2023/12/01 01:02:11;;;;;;;49.13;19.63;;;0.10;99.90;;;;;;4241633;28;20433;-81
2023/12/01 01:04:12;;;;;;;53.80;19.77;;;0.30;99.90;;;;;;4244374;28;20527;-80
2023/12/01 01:06:15;;;;;;;54.20;21.07;;;0.10;99.90;;;;;;4245519;27;20457;-79
2023/12/01 01:08:16;;;;;;;53.07;19.17;;;0.10;99.90;;;;;;4245254;28;20468;-79
2023/12/01 01:10:17;;;;;;;55.87;20.00;;;0.10;99.90;;;;;;4245025;28;20447;-79
2023/12/01 01:12:19;;;;;;;57.23;20.43;;;0.60;99.90;;;;;;4240553;28;20224;-79
2023/12/01 01:14:22;;;;;;;52.93;19.47;;;0.10;99.90;;;;;;4238967;27;20464;-79
2023/12/01 01:16:25;;;;;;;52.33;19.83;;;0.60;99.90;;;;;;4247979;27;20445;-81
2023/12/01 01:18:27;;;;;;;55.70;20.77;;;0.80;99.90;;;;;;4244462;27;20977;-80
2023/12/01 01:20:30;;;;;;;49.07;20.47;;;0.00;99.90;;;;;;4242528;27;20992;-79
2023/12/01 01:22:32;;;;;;;49.43;19.80;;;0.50;99.90;;;;;;4246415;27;21136;-79
2023/12/01 01:24:34;;;;;;;54.00;19.93;;;0.00;99.90;;;;;;4245476;27;20453;-79
2023/12/01 01:26:36;;;;;;;51.77;19.90;;;0.10;99.90;;;;;;4248664;27;20433;-79
2023/12/01 01:28:40;;;;;;;44.60;18.10;;;0.30;99.90;;;;;;4246837;27;20467;-80
2023/12/01 01:30:42;;;;;;;47.27;18.47;;;0.00;99.90;;;;;;4245417;27;20456;-80
2023/12/01 01:32:46;;;;;;;45.33;18.03;;;0.00;99.90;;;;;;4245671;27;20486;-79
2023/12/01 01:34:48;;;;;;;51.70;18.93;;;0.60;99.90;;;;;;4253418;27;20510;-79
2023/12/01 01:36:50;;;;;;;50.43;18.60;;;0.20;99.90;;;;;;4245363;27;20462;-79
2023/12/01 01:38:51;;;;;;;48.80;18.50;;;0.00;99.90;;;;;;4249362;27;20463;-79
2023/12/01 01:40:53;;;;;;;50.20;18.90;;;0.00;99.90;;;;;;4248172;27;20865;-81
2023/12/01 01:42:55;;;;;;;48.77;19.33;;;0.00;99.90;;;;;;4244075;27;20196;-79
2023/12/01 01:44:57;;;;;;;48.33;18.40;;;0.00;99.90;;;;;;4242531;27;20561;-80
2023/12/01 01:47:02;;;;;;;49.43;18.90;;;0.00;99.90;;;;;;4247412;27;20442;-80
2023/12/01 01:49:06;;;;;;;46.90;18.17;;;0.00;99.90;;;;;;4247377;27;20499;-79
2023/12/01 01:51:09;;;;;;;51.70;19.27;;;0.00;99.90;;;;;;4245574;27;20490;-81
2023/12/01 01:53:11;;;;;;;45.37;17.83;;;0.00;99.90;;;;;;4238414;27;20488;-80
2023/12/01 01:55:13;;;;;;;46.43;17.77;;;0.20;99.90;;;;;;4241229;27;20471;-80
2023/12/01 01:57:15;;;;;;;53.13;19.97;;;0.00;99.90;;;;;;4246545;27;20442;-83
2023/12/01 01:59:19;;;;;;;46.30;17.10;;;0.00;99.90;;;;;;4246517;27;20506;-81
2023/12/01 02:01:22;;;;;;;52.43;18.77;;;0.00;99.90;;;;;;4232105;28;20464;-82
2023/12/01 02:03:24;;;;;;;39.53;17.30;;;0.00;99.90;;;;;;4249272;27;20469;-82
2023/12/01 02:05:27;;;;;;;48.93;19.17;;;-0.10;99.90;;;;;;4243219;27;20531;-82
2023/12/01 02:07:29;;;;;;;49.77;17.67;;;0.00;99.90;;;;;;4242749;27;20441;-82
2023/12/01 02:09:33;;;;;;;48.63;18.53;;;0.50;99.90;;;;;;4243702;27;20470;-83
2023/12/01 02:11:35;;;;;;;48.50;17.80;;;0.00;99.90;;;;;;4239011;27;20475;-83
2023/12/01 02:13:36;;;;;;;46.40;17.40;;;0.00;99.90;;;;;;4237099;27;20532;-83
2023/12/01 02:15:38;;;;;;;45.97;17.43;;;0.00;99.90;;;;;;4242438;27;20448;-82
2023/12/01 02:17:40;;;;;;;45.47;18.23;;;-0.10;99.90;;;;;;4244635;27;20491;-82
2023/12/01 02:19:42;;;;;;;51.20;18.23;;;0.00;99.90;;;;;;4246146;27;21007;-82
2023/12/01 02:21:46;;;;;;;45.70;17.63;;;0.00;99.90;;;;;;4238002;27;20503;-82
2023/12/01 02:23:48;;;;;;;44.20;17.47;;;0.20;99.90;;;;;;4242218;27;20520;-83
2023/12/01 02:25:50;;;;;;;51.83;18.60;;;0.00;99.90;;;;;;4242900;27;20456;-82
2023/12/01 02:27:52;;;;;;;44.47;18.20;;;-0.10;99.90;;;;;;4239115;27;20460;-82
2023/12/01 02:29:54;;;;;;;45.53;17.83;;;0.00;99.90;;;;;;4230491;27;20453;-82
2023/12/01 02:31:55;;;;;;;45.53;17.50;;;-0.10;99.90;;;;;;4238194;27;20559;-82
2023/12/01 02:33:57;;;;;;;48.87;17.03;;;-0.10;99.90;;;;;;4248374;27;20502;-82
2023/12/01 02:35:59;;;;;;;44.90;17.57;;;0.00;99.90;;;;;;4240430;27;20684;-82
2023/12/01 02:38:02;;;;;;;49.67;18.37;;;-0.10;99.90;;;;;;4226900;28;20610;-82
2023/12/01 02:40:14;;;;;;;48.80;18.07;;;-0.10;99.90;;;;;;4243015;27;20521;-82
2023/12/01 02:42:16;;;;;;;51.10;18.37;;;-0.10;99.90;;;;;;4247031;27;20885;-81
2023/12/01 02:44:18;;;;;;;45.13;18.13;;;-0.10;99.90;;;;;;4229204;28;20493;-82
2023/12/01 02:46:22;;;;;;;48.80;17.53;;;-0.10;99.90;;;;;;4262827;27;20440;-82
2023/12/01 02:48:24;;;;;;;45.53;16.80;;;-0.10;99.90;;;;;;4265110;27;20442;-81
2023/12/01 02:50:26;;;;;;;45.80;16.97;;;-0.10;99.90;;;;;;4268067;27;20458;-81
2023/12/01 02:52:28;;;;;;;51.23;17.63;;;-0.10;99.90;;;;;;4253385;28;20499;-82
2023/12/01 02:54:31;;;;;;;45.00;16.90;;;-0.10;99.90;;;;;;4251097;28;20446;-81
2023/12/01 02:56:33;;;;;;;48.37;18.00;;;-0.10;99.90;;;;;;4257777;27;20461;-82
2023/12/01 02:58:34;;;;;;;45.23;17.47;;;-0.10;99.90;;;;;;4259378;27;20534;-80
2023/12/01 03:00:36;;;;;;;46.23;16.60;;;0.50;99.90;;;;;;4251241;27;20512;-81
2023/12/01 03:02:37;;;;;;;43.27;16.33;;;-0.10;99.90;;;;;;4248706;27;20244;-82
2023/12/01 03:04:39;;;;;;;45.23;17.17;;;-0.10;99.90;;;;;;4253310;27;20441;-81
2023/12/01 03:06:41;;;;;;;45.20;17.37;;;-0.10;99.90;;;;;;4233247;27;20525;-82
2023/12/01 03:08:43;;;;;;;37.97;14.47;;;0.00;99.90;;;;;;4255892;27;20457;-81
2023/12/01 03:10:48;;;;;;;43.30;15.67;;;-0.10;99.90;;;;;;4251215;27;20476;-81
2023/12/01 03:12:49;;;;;;;40.30;16.20;;;-0.10;99.90;;;;;;4256251;27;20483;-81
2023/12/01 03:14:50;;;;;;;41.87;15.57;;;0.10;99.90;;;;;;4255805;27;20516;-81
2023/12/01 03:16:56;;;;;;;43.40;16.17;;;0.00;99.90;;;;;;4252987;27;20218;-81
2023/12/01 03:18:58;;;;;;;38.90;15.63;;;-0.10;99.90;;;;;;4257621;27;20499;-81
2023/12/01 03:21:00;;;;;;;47.77;17.30;;;-0.10;99.90;;;;;;4254634;27;20452;-82
2023/12/01 03:23:02;;;;;;;39.93;15.47;;;0.20;99.90;;;;;;4253233;27;20468;-81
2023/12/01 03:25:06;;;;;;;39.90;15.30;;;0.40;99.90;;;;;;4246293;27;20454;-80
2023/12/01 03:27:12;;;;;;;41.73;15.93;;;-0.10;99.90;;;;;;4246054;27;20465;-82
2023/12/01 03:29:14;;;;;;;42.03;17.13;;;-0.10;99.90;;;;;;4235828;27;20545;-82
2023/12/01 03:31:16;;;;;;;43.47;17.03;;;-0.10;99.90;;;;;;4238981;27;20472;-81
2023/12/01 03:33:18;;;;;;;43.70;16.57;;;-0.10;99.90;;;;;;4240362;27;20484;-82
2023/12/01 03:35:22;;;;;;;41.27;16.43;;;-0.10;99.90;;;;;;4238707;27;20445;-82
2023/12/01 03:37:24;;;;;;;36.03;14.97;;;-0.10;99.90;;;;;;4241236;27;20466;-82
2023/12/01 03:39:25;;;;;;;40.13;15.23;;;-0.10;99.90;;;;;;4238079;27;20469;-82
2023/12/01 03:41:27;;;;;;;40.13;15.83;;;-0.10;99.90;;;;;;4241265;27;20444;-81
2023/12/01 03:43:33;;;;;;;39.03;16.60;;;-0.10;99.90;;;;;;4238418;27;20460;-82
2023/12/01 03:45:35;;;;;;;43.03;15.83;;;0.00;99.90;;;;;;4235131;27;20444;-82
2023/12/01 03:47:37;;;;;;;40.17;16.20;;;-0.10;99.90;;;;;;4236379;27;20457;-81
2023/12/01 03:49:39;;;;;;;42.80;17.63;;;-0.10;99.90;;;;;;4234738;27;20484;-82
2023/12/01 03:51:40;;;;;;;42.83;16.50;;;-0.10;99.90;;;;;;4246391;27;20529;-82
2023/12/01 03:53:42;;;;;;;45.97;18.10;;;-0.10;99.90;;;;;;4242240;27;20474;-82
2023/12/01 03:55:44;;;;;;;39.67;16.60;;;-0.10;99.90;;;;;;4240873;27;20817;-82
2023/12/01 03:57:46;;;;;;;40.80;16.57;;;-0.10;99.90;;;;;;4241948;27;20498;-82
2023/12/01 03:59:49;;;;;;;46.87;18.20;;;-0.10;99.90;;;;;;4240115;27;20503;-81
2023/12/01 04:01:51;;;;;;;46.33;17.50;;;-0.10;99.90;;;;;;4239352;27;20913;-81
2023/12/01 04:03:53;;;;;;;44.83;18.37;;;-0.10;99.90;;;;;;4237653;28;20440;-81
2023/12/01 04:05:55;;;;;;;45.20;16.97;;;-0.10;99.90;;;;;;4235135;27;20496;-81
2023/12/01 04:07:57;;;;;;;45.43;16.73;;;-0.10;99.90;;;;;;4236353;27;20868;-82
2023/12/01 04:09:58;;;;;;;43.80;18.23;;;-0.10;99.90;;;;;;4239813;27;20512;-81
2023/12/01 04:12:00;;;;;;;40.50;16.10;;;0.20;99.90;;;;;;4234179;27;21155;-82
2023/12/01 04:14:03;;;;;;;43.03;17.83;;;-0.10;99.90;;;;;;4238909;27;20595;-81
2023/12/01 04:16:08;;;;;;;43.37;17.47;;;-0.10;99.90;;;;;;4237764;27;20475;-81
2023/12/01 04:18:09;;;;;;;47.13;17.87;;;-0.10;99.90;;;;;;4242193;28;20523;-81
2023/12/01 04:20:21;;;;;;;43.03;17.57;;;0.90;99.90;;;;;;4239333;27;20445;-81
2023/12/01 04:22:23;;;;;;;45.80;18.13;;;-0.10;99.90;;;;;;4231338;27;20720;-81
2023/12/01 04:24:25;;;;;;;44.40;17.10;;;-0.10;99.90;;;;;;4247925;27;20444;-81
2023/12/01 04:26:28;;;;;;;43.83;17.13;;;-0.10;99.90;;;;;;4246357;28;20453;-81
2023/12/01 04:28:30;;;;;;;45.37;17.37;;;-0.10;99.90;;;;;;4241597;28;21111;-81
2023/12/01 04:30:32;;;;;;;37.53;16.07;;;-0.10;99.90;;;;;;4241266;28;20465;-82
2023/12/01 04:32:35;;;;;;;48.07;17.83;;;-0.10;99.90;;;;;;4243099;27;20839;-81
2023/12/01 04:34:37;;;;;;;38.43;15.33;;;-0.10;99.90;;;;;;4235247;28;20445;-82
2023/12/01 04:36:39;;;;;;;39.70;16.10;;;-0.10;99.90;;;;;;4246504;28;20428;-81
2023/12/01 04:38:42;;;;;;;40.07;17.17;;;-0.20;99.90;;;;;;4249776;28;20461;-81
2023/12/01 04:40:44;;;;;;;41.63;16.80;;;-0.10;99.90;;;;;;4249411;27;20530;-82
2023/12/01 04:42:46;;;;;;;39.97;16.37;;;-0.10;99.90;;;;;;4248145;27;20444;-82
2023/12/01 04:44:48;;;;;;;41.70;16.30;;;-0.10;99.90;;;;;;4235383;27;20452;-82
2023/12/01 04:46:50;;;;;;;43.83;16.77;;;-0.20;99.90;;;;;;4246435;27;20452;-82
2023/12/01 04:48:53;;;;;;;41.90;16.73;;;-0.10;99.90;;;;;;4236974;28;20469;-81
2023/12/01 04:50:56;;;;;;;44.67;16.80;;;0.10;99.90;;;;;;4240240;27;20493;-82
2023/12/01 04:52:58;;;;;;;41.53;17.90;;;0.70;99.90;;;;;;4231907;27;20550;-82
2023/12/01 04:55:00;;;;;;;46.47;18.50;;;-0.10;99.90;;;;;;4240746;27;20439;-82
2023/12/01 04:57:02;;;;;;;41.77;16.47;;;-0.20;99.90;;;;;;4247953;27;20450;-82
2023/12/01 04:59:04;;;;;;;35.10;15.17;;;-0.20;99.90;;;;;;4240369;27;20488;-82
2023/12/01 05:01:07;;;;;;;44.63;16.67;;;-0.20;99.90;;;;;;4240765;27;20441;-82
2023/12/01 05:03:08;;;;;;;43.10;16.67;;;-0.20;99.90;;;;;;4243757;27;20454;-81
2023/12/01 05:05:12;;;;;;;37.30;16.10;;;-0.20;99.90;;;;;;4225940;28;20444;-82
2023/12/01 05:07:14;;;;;;;44.73;17.37;;;-0.20;99.90;;;;;;4237466;27;20630;-82
2023/12/01 05:09:17;;;;;;;40.17;15.90;;;-0.20;99.90;;;;;;4243513;27;20833;-81
2023/12/01 05:11:19;;;;;;;42.23;16.20;;;-0.20;99.90;;;;;;4245677;27;20449;-81
2023/12/01 05:13:21;;;;;;;35.40;14.93;;;-0.10;99.90;;;;;;4245718;27;20476;-82
2023/12/01 05:15:24;;;;;;;38.57;15.83;;;-0.30;99.90;;;;;;4241929;27;20479;-81
2023/12/01 05:17:26;;;;;;;37.83;15.97;;;-0.20;99.90;;;;;;4230079;28;20475;-82
2023/12/01 05:19:28;;;;;;;39.60;15.87;;;-0.20;99.90;;;;;;4251447;27;20464;-81
2023/12/01 05:21:32;;;;;;;36.93;15.87;;;-0.20;99.90;;;;;;4242537;27;20502;-81
2023/12/01 05:23:34;;;;;;;39.40;16.57;;;-0.10;99.90;;;;;;4233502;27;20441;-82
2023/12/01 05:25:37;;;;;;;39.17;15.93;;;0.60;99.90;;;;;;4243959;27;21087;-82
2023/12/01 05:27:39;;;;;;;37.80;15.90;;;-0.20;99.90;;;;;;4224115;28;20858;-82
2023/12/01 05:29:41;;;;;;;37.33;16.40;;;-0.20;99.90;;;;;;4237036;27;20460;-81
2023/12/01 05:31:43;;;;;;;34.80;15.17;;;-0.20;99.90;;;;;;4241639;27;20529;-82
2023/12/01 05:33:46;;;;;;;33.73;14.57;;;-0.20;99.90;;;;;;4247051;27;20468;-81
2023/12/01 05:35:48;;;;;;;39.17;15.97;;;0.00;99.90;;;;;;4239911;27;20444;-81
2023/12/01 05:37:53;;;;;;;36.43;15.13;;;-0.20;99.90;;;;;;4245667;27;20436;-82
2023/12/01 05:39:54;;;;;;;37.30;15.57;;;-0.20;99.90;;;;;;4239616;27;20555;-81
2023/12/01 05:41:56;;;;;;;40.93;15.57;;;0.00;99.90;;;;;;4243902;27;20996;-81
2023/12/01 05:43:58;;;;;;;36.47;15.87;;;-0.20;99.90;;;;;;4242084;27;20206;-81
2023/12/01 05:46:00;;;;;;;36.63;15.20;;;-0.20;99.90;;;;;;4243627;27;20505;-81
2023/12/01 05:48:02;;;;;;;30.83;13.33;;;-0.20;99.90;;;;;;4240087;27;20475;-81
2023/12/01 05:50:05;;;;;;;35.67;14.97;;;-0.20;99.90;;;;;;4240660;27;20455;-81
2023/12/01 05:52:07;;;;;;;32.90;14.60;;;-0.20;99.90;;;;;;4242038;27;20436;-81
2023/12/01 05:54:10;;;;;;;38.57;15.77;;;-0.20;99.90;;;;;;4244931;27;20475;-81
2023/12/01 05:56:12;;;;;;;31.60;14.30;;;0.80;99.90;;;;;;4245911;27;20502;-82
2023/12/01 05:58:14;;;;;;;36.30;15.27;;;-0.10;99.90;;;;;;4238892;27;21591;-81
2023/12/01 06:00:17;;;;;;;35.93;14.80;;;-0.20;99.90;;;;;;4235215;27;20445;-81
2023/12/01 06:02:19;;;;;;;39.23;15.40;;;-0.20;99.90;;;;;;4238561;27;20432;-81
2023/12/01 06:04:21;;;;;;;33.10;14.30;;;-0.20;99.90;;;;;;4244028;27;20453;-81
2023/12/01 06:06:23;;;;;;;36.80;15.47;;;-0.20;99.90;;;;;;4246776;27;20460;-81
2023/12/01 06:08:25;;;;;;;37.90;16.60;;;-0.20;99.90;;;;;;4243759;27;20477;-81
2023/12/01 06:10:29;;;;;;;37.20;16.00;;;-0.20;99.90;;;;;;4246068;27;20493;-81
2023/12/01 06:12:31;;;;;;;37.57;16.03;;;-0.20;99.90;;;;;;4238045;27;20442;-80
2023/12/01 06:14:33;;;;;;;40.27;16.93;;;-0.20;99.90;;;;;;4236273;27;20950;-81
2023/12/01 06:16:35;;;;;;;34.83;15.43;;;-0.20;99.90;;;;;;4237180;27;21440;-81
2023/12/01 06:18:37;;;;;;;38.00;16.83;;;-0.20;99.90;;;;;;4238209;27;20468;-81
2023/12/01 06:20:39;;;;;;;38.30;15.83;;;0.10;99.90;;;;;;4247082;27;20458;-81
2023/12/01 06:22:40;;;;;;;36.30;15.37;;;-0.30;99.90;;;;;;4243148;27;20461;-80
2023/12/01 06:24:42;;;;;;;43.13;16.47;;;-0.20;99.90;;;;;;4244737;27;20445;-81
2023/12/01 06:26:46;;;;;;;40.53;17.50;;;-0.10;99.90;;;;;;4246937;27;20479;-81
2023/12/01 06:28:48;;;;;;;36.07;15.57;;;-0.20;99.90;;;;;;4241479;27;20517;-81
2023/12/01 06:30:50;;;;;;;36.83;16.83;;;0.40;99.90;;;;;;4237999;27;20450;-81
2023/12/01 06:32:52;;;;;;;39.43;16.10;;;-0.30;99.90;;;;;;4247353;27;20462;-80
2023/12/01 06:34:54;;;;;;;37.60;16.17;;;-0.30;99.90;;;;;;4244842;27;20451;-80
2023/12/01 06:36:59;;;;;;;33.80;13.67;;;-0.30;99.90;;;;;;4239522;27;20446;-81
2023/12/01 06:39:00;;;;;;;33.37;14.77;;;-0.30;99.90;;;;;;4246245;27;20468;-80
2023/12/01 06:41:06;;;;;;;39.23;16.33;;;-0.30;99.90;;;;;;4249977;27;20460;-80
2023/12/01 06:43:10;;;;;;;32.63;15.03;;;-0.30;99.90;;;;;;4248320;27;20748;-80
2023/12/01 06:45:13;;;;;;;35.37;14.33;;;-0.30;99.90;;;;;;4238936;27;20444;-80
2023/12/01 06:47:15;;;;;;;31.67;13.80;;;-0.30;99.90;;;;;;4244388;27;20475;-80
2023/12/01 06:49:19;;;;;;;32.80;13.87;;;-0.30;99.90;;;;;;4244066;27;20583;-81
2023/12/01 06:51:21;;;;;;;28.63;13.73;;;-0.30;99.90;;;;;;4238112;27;20494;-80
2023/12/01 06:53:23;;;;;;;31.97;13.30;;;-0.30;99.90;;;;;;4237834;27;20830;-81
2023/12/01 06:55:25;;;;;;;32.37;13.73;;;-0.30;99.90;;;;;;4241619;27;20443;-81
2023/12/01 06:57:25;;;;;;;32.67;13.60;;;-0.30;99.90;;;;;;4240502;27;20506;-81
2023/12/01 06:59:29;;;;;;;31.80;13.60;;;-0.30;99.90;;;;;;4244533;27;20519;-80
2023/12/01 07:01:31;;;;;;;32.53;13.47;;;-0.30;99.90;;;;;;4245991;27;20219;-80
2023/12/01 07:03:33;;;;;;;29.63;13.40;;;-0.30;99.90;;;;;;4252297;27;20448;-80
2023/12/01 07:05:37;;;;;;;33.90;14.23;;;0.80;99.90;;;;;;4240330;27;20444;-81
2023/12/01 07:07:38;;;;;;;30.77;13.27;;;-0.30;99.90;;;;;;4238073;27;20937;-80
2023/12/01 07:09:43;;;;;;;30.73;12.63;;;-0.20;99.90;;;;;;4241530;27;20471;-80
2023/12/01 07:11:48;;;;;;;32.80;14.10;;;-0.20;99.90;;;;;;4240162;27;20215;-80
2023/12/01 07:13:50;;;;;;;35.00;14.53;;;-0.30;99.90;;;;;;4236874;27;20481;-80
2023/12/01 07:15:53;;;;;;;34.27;14.00;;;-0.30;99.90;;;;;;4245217;27;20458;-81
2023/12/01 07:17:56;;;;;;;30.67;13.57;;;0.30;99.90;;;;;;4234481;27;20456;-81
2023/12/01 07:19:59;;;;;;;37.17;14.90;;;-0.30;99.90;;;;;;4246719;27;20524;-80
2023/12/01 07:22:01;;;;;;;32.60;13.23;;;-0.30;99.90;;;;;;4244612;27;20463;-80
2023/12/01 07:24:04;;;;;;;30.87;13.87;;;-0.30;99.90;;;;;;4240451;27;20464;-80
2023/12/01 07:26:06;;;;;;;33.07;15.13;;;-0.30;99.90;;;;;;4243700;27;20481;-81
2023/12/01 07:28:09;;;;;;;34.93;14.93;;;-0.30;99.90;;;;;;4243683;27;20468;-86
2023/12/01 07:30:16;;;;;;;33.87;13.93;;;-0.30;99.90;;;;;;4238020;27;20502;-87
2023/12/01 07:32:20;;;;;;;31.83;14.10;;;-0.30;99.90;;;;;;4238709;27;20462;-86
2023/12/01 07:34:21;;;;;;;31.47;14.13;;;-0.70;99.90;;;;;;4239684;27;20489;-86
2023/12/01 07:36:23;;;;;;;34.80;14.80;;;-0.20;99.90;;;;;;4240025;27;20729;-87
2023/12/01 07:38:25;;;;;;;35.53;15.70;;;0.90;99.90;;;;;;4255343;27;20451;-85
2023/12/01 07:40:27;;;;;;;36.33;15.47;;;-0.30;99.90;;;;;;4263858;27;20443;-85
2023/12/01 07:42:29;;;;;;;37.23;15.33;;;-0.30;99.90;;;;;;4259780;27;20437;-80
2023/12/01 07:44:31;;;;;;;34.27;15.00;;;-0.30;99.90;;;;;;4265943;27;20496;-79
2023/12/01 07:46:33;;;;;;;37.07;15.27;;;-0.20;99.90;;;;;;4249489;27;20441;-78
2023/12/01 07:48:36;;;;;;;40.73;16.97;;;-0.30;99.90;;;;;;4244667;27;21144;-80
2023/12/01 07:50:38;;;;;;;43.47;17.63;;;-0.20;99.90;;;;;;4245793;27;20477;-79
2023/12/01 07:52:40;;;;;;;42.33;17.70;;;-0.30;99.90;;;;;;4247699;27;21053;-77
2023/12/01 07:54:44;;;;;;;43.63;17.53;;;-0.30;99.90;;;;;;4244914;27;20503;-77
2023/12/01 07:56:46;;;;;;;47.77;19.17;;;-0.30;99.90;;;;;;4239439;27;20437;-78
2023/12/01 07:58:49;;;;;;;44.30;17.40;;;-0.30;99.90;;;;;;4234794;27;21052;-79
2023/12/01 08:00:52;;;;;;;37.43;15.63;;;-0.20;99.90;;;;;;4240096;27;21300;-79
2023/12/01 08:02:55;;;;;;;43.37;17.03;;;-0.30;99.90;;;;;;4216383;28;20482;-79
2023/12/01 08:04:58;;;;;;;39.13;16.03;;;-0.30;99.90;;;;;;4227039;28;20453;-78
2023/12/01 08:07:00;;;;;;;40.17;16.30;;;-0.30;99.90;;;;;;4233826;27;20502;-78
2023/12/01 08:09:02;;;;;;;43.57;17.03;;;-0.30;99.90;;;;;;4237133;27;20559;-78
2023/12/01 08:11:05;;;;;;;39.83;16.53;;;-0.30;99.90;;;;;;4224886;27;20451;-78
2023/12/01 08:13:08;;;;;;;44.50;17.03;;;-0.30;99.90;;;;;;4233548;27;20819;-78
2023/12/01 08:15:10;;;;;;;46.97;17.90;;;0.10;99.90;;;;;;4239214;27;20494;-78
2023/12/01 08:17:12;;;;;;;40.10;16.53;;;-0.30;99.90;;;;;;4242112;27;21857;-78
2023/12/01 08:19:16;;;;;;;43.00;16.40;;;-0.30;99.90;;;;;;4233944;27;21051;-78
2023/12/01 08:21:24;;;;;;;39.23;15.00;;;0.20;99.90;;;;;;4221768;28;20575;-78
2023/12/01 08:23:27;;;;;;;40.90;16.73;;;-0.30;99.90;;;;;;4238430;27;20472;-77
2023/12/01 08:25:29;;;;;;;38.43;15.50;;;-0.30;99.90;;;;;;4248111;27;20442;-77
2023/12/01 08:27:30;;;;;;;42.00;17.27;;;-0.30;99.90;;;;;;4245364;27;20519;-78
2023/12/01 08:29:31;;;;;;;39.10;14.90;;;-0.30;99.90;;;;;;4243476;27;20469;-77
2023/12/01 08:31:33;;;;;;;45.77;16.93;;;-0.30;99.90;;;;;;4243888;27;20455;-77
2023/12/01 08:33:36;;;;;;;41.63;15.83;;;-0.30;99.90;;;;;;4245433;27;20493;-78
2023/12/01 08:35:38;;;;;;;39.90;15.10;;;0.40;99.90;;;;;;4244327;27;20907;-77
2023/12/01 08:37:41;;;;;;;39.17;15.43;;;-0.30;99.90;;;;;;4239521;27;20448;-77
2023/12/01 08:39:44;;;;;;;41.13;15.83;;;-0.30;99.90;;;;;;4240782;27;20449;-77
2023/12/01 08:41:46;;;;;;;40.47;15.07;;;-0.30;99.90;;;;;;4244090;27;20440;-78
2023/12/01 08:43:47;;;;;;;38.67;15.47;;;-0.30;99.90;;;;;;4240411;27;20469;-77
2023/12/01 08:45:49;;;;;;;39.60;15.20;;;-0.30;99.90;;;;;;4244017;27;21012;-77
2023/12/01 08:48:05;;;;;;;38.93;15.03;;;-0.30;99.90;;;;;;4240729;27;20437;-78
2023/12/01 08:50:07;;;;;;;35.20;15.03;;;-0.30;99.90;;;;;;4236957;27;21285;-77
2023/12/01 08:52:09;;;;;;;41.20;16.03;;;-0.40;99.90;;;;;;4244009;27;20439;-77
2023/12/01 08:54:16;;;;;;;43.67;16.13;;;-0.40;99.90;;;;;;4238509;27;20484;-78
2023/12/01 08:56:18;;;;;;;42.03;16.17;;;-0.40;99.90;;;;;;4234935;27;20533;-78
2023/12/01 08:58:34;;;;;;;38.63;15.47;;;-0.40;99.90;;;;;;4240858;27;21398;-77
2023/12/01 09:00:37;;;;;;;38.00;14.60;;;-0.40;99.90;;;;;;4253690;27;20442;-77
2023/12/01 09:02:38;;;;;;;39.17;15.50;;;-0.30;99.90;;;;;;4253082;27;20499;-77
2023/12/01 09:04:40;;;;;;;38.53;15.50;;;-0.40;99.90;;;;;;4255940;27;20432;-78
2023/12/01 09:06:41;;;;;;;44.33;18.03;;;-0.40;99.90;;;;;;4250635;27;20547;-79
2023/12/01 09:08:43;;;;;;;43.27;18.67;;;-0.40;99.90;;;;;;4247539;27;20475;-77
2023/12/01 09:10:47;;;;;;;41.13;15.90;;;-0.40;99.90;;;;;;4246982;27;20455;-79
2023/12/01 09:12:50;;;;;;;37.60;16.00;;;-0.40;99.90;;;;;;4237242;27;20862;-79
2023/12/01 09:14:52;;;;;;;39.53;15.93;;;-0.40;99.90;;;;;;4242630;27;20541;-78
2023/12/01 09:16:53;;;;;;;37.53;14.93;;;-0.30;99.90;;;;;;4247711;27;20506;-79
2023/12/01 09:18:55;;;;;;;38.70;15.77;;;-0.40;99.90;;;;;;4240626;27;20464;-79
2023/12/01 09:20:57;;;;;;;38.90;15.33;;;-0.40;99.90;;;;;;4238895;27;20498;-79
2023/12/01 09:23:02;;;;;;;41.93;15.53;;;-0.30;99.90;;;;;;4245576;27;20436;-79
2023/12/01 09:25:05;;;;;;;33.00;14.73;;;-0.40;99.90;;;;;;4240550;27;20460;-78
2023/12/01 09:27:08;;;;;;;35.93;14.53;;;-0.40;99.90;;;;;;4233700;27;20998;-79
2023/12/01 09:29:10;;;;;;;41.43;15.27;;;-0.30;99.90;;;;;;4235853;27;20452;-79
2023/12/01 09:31:13;;;;;;;42.60;16.13;;;-0.30;99.90;;;;;;4241819;27;21104;-79
2023/12/01 09:33:18;;;;;;;37.17;14.63;;;-0.40;99.90;;;;;;4244440;27;20497;-79
2023/12/01 09:35:23;;;;;;;40.80;15.77;;;-0.30;99.90;;;;;;4237696;27;20484;-79
2023/12/01 09:37:25;;;;;;;38.07;15.63;;;-0.30;99.90;;;;;;4248533;27;20502;-79
2023/12/01 09:39:27;;;;;;;35.93;15.00;;;-0.30;99.90;;;;;;4246618;27;20481;-79
2023/12/01 09:41:29;;;;;;;38.33;15.73;;;-0.30;99.90;;;;;;4243251;27;20437;-78
2023/12/01 09:43:32;;;;;;;39.90;14.40;;;-0.30;99.90;;;;;;4240956;27;20814;-78
2023/12/01 09:45:39;;;;;;;39.53;16.37;;;-0.30;99.90;;;;;;4238772;27;20444;-78
2023/12/01 09:47:51;;;;;;;34.43;14.60;;;-0.30;99.90;;;;;;4233417;27;20468;-78
2023/12/01 09:49:53;;;;;;;33.97;13.83;;;-0.20;99.90;;;;;;4233679;27;20853;-78
2023/12/01 09:51:55;;;;;;;35.27;15.43;;;-0.20;99.90;;;;;;4233102;27;20505;-78
2023/12/01 09:53:57;;;;;;;35.90;15.67;;;-0.20;99.90;;;;;;4239824;27;20555;-78
2023/12/01 09:56:00;;;;;;;48.37;17.77;;;-0.20;99.90;;;;;;4239368;27;21012;-77
2023/12/01 09:58:02;;;;;;;39.83;17.60;;;-0.20;99.90;;;;;;4234792;27;20461;-78
2023/12/01 10:00:10;;;;;;;39.17;16.70;;;-0.20;99.90;;;;;;4236645;27;20985;-77
2023/12/01 10:02:13;;;;;;;36.87;16.57;;;-0.10;99.90;;;;;;4244414;27;20528;-78
2023/12/01 10:04:15;;;;;;;38.60;16.23;;;-0.10;99.90;;;;;;4239187;27;20463;-78
2023/12/01 10:06:18;;;;;;;35.10;15.03;;;-0.10;99.90;;;;;;4237414;27;20462;-78
2023/12/01 10:08:19;;;;;;;34.60;14.80;;;-0.20;99.90;;;;;;4238683;27;20457;-78
2023/12/01 10:10:22;;;;;;;36.13;16.60;;;-0.10;99.90;;;;;;4238059;27;20444;-78
2023/12/01 10:12:23;;;;;;;37.13;16.77;;;-0.10;99.90;;;;;;4243573;27;20501;-78
2023/12/01 10:14:25;;;;;;;35.47;15.77;;;-0.10;99.90;;;;;;4244721;27;20489;-78
2023/12/01 10:16:35;;;;;;;38.77;15.67;;;-0.10;99.90;;;;;;4238775;27;20442;-78
2023/12/01 10:18:37;;;;;;;39.03;16.20;;;-0.10;99.90;;;;;;4227267;27;20525;-78
2023/12/01 10:20:40;;;;;;;36.10;14.93;;;-0.10;99.90;;;;;;4233216;27;20438;-78
2023/12/01 10:22:42;;;;;;;36.10;16.10;;;0.40;99.90;;;;;;4237508;27;20541;-78
2023/12/01 10:24:53;;;;;;;36.03;16.43;;;-0.10;99.90;;;;;;4239432;27;20443;-77